createdAt,value
2023-02-13T00:00:21.973Z,100162.13
2023-02-13T00:03:25.682Z,100165.13
2023-02-13T00:06:30.087Z,100166.63
2023-02-13T00:09:33.255Z,100166.28
2023-02-13T00:12:36.778Z,100164.41
2023-02-13T00:15:40.002Z,100167.28
2023-02-13T00:18:43.185Z,100163.41
2023-02-13T00:21:48.111Z,100170.31
2023-02-13T00:24:52.254Z,100137.63
2023-02-13T00:27:55.623Z,100133.13
2023-02-13T00:31:04.749Z,100166.56
2023-02-13T00:34:10.390Z,100164.38
2023-02-13T00:37:14.861Z,100164.09
2023-02-13T00:40:18.408Z,100136.16
2023-02-13T00:43:21.906Z,100152.81
2023-02-13T00:46:25.137Z,100170.41
2023-02-13T00:49:29.486Z,100171.94
2023-02-13T00:52:34.022Z,100176.84
2023-02-13T00:55:37.235Z,100163.88
2023-02-13T00:58:40.437Z,100167.69
2023-02-13T01:01:45.871Z,100167.19
2023-02-13T01:04:49.160Z,100169.97
2023-02-13T01:07:53.698Z,100171.06
2023-02-13T01:10:57.680Z,100166.84
2023-02-13T01:14:01.362Z,100166.00
2023-02-13T01:17:04.646Z,100171.25
2023-02-13T01:20:09.213Z,100162.88
2023-02-13T01:23:14.035Z,100170.91
2023-02-13T01:26:19.615Z,100160.81
2023-02-13T01:29:22.766Z,100148.91
2023-02-13T01:32:26.438Z,100160.69
2023-02-13T01:35:29.768Z,100160.19
2023-02-13T01:38:34.317Z,100153.34
2023-02-13T01:41:40.450Z,100152.44
2023-02-13T01:44:53.795Z,100150.75
2023-02-13T01:48:00.551Z,100151.19
2023-02-13T01:51:07.262Z,100153.16
2023-02-13T01:54:16.154Z,100148.50
2023-02-13T01:57:22.899Z,100155.41
2023-02-13T02:00:26.996Z,100160.41
2023-02-13T02:03:34.392Z,100164.94
2023-02-13T02:06:45.295Z,100154.03
2023-02-13T02:09:54.491Z,100162.44
2023-02-13T02:13:06.182Z,100128.22
2023-02-13T02:16:10.853Z,100147.03
2023-02-13T02:19:27.630Z,100149.78
2023-02-13T02:23:02.885Z,100158.00
2023-02-13T02:26:44.631Z,100164.47
2023-02-13T02:30:10.894Z,100161.56
2023-02-13T02:33:33.010Z,100149.84
2023-02-13T02:36:48.850Z,100141.38
2023-02-13T02:40:04.986Z,100143.50
2023-02-13T02:43:20.513Z,99926.59
2023-02-13T02:46:37.231Z,100149.44
2023-02-13T02:49:58.570Z,100154.31
2023-02-13T02:53:15.646Z,100156.16
2023-02-13T02:56:24.358Z,100151.22
2023-02-13T02:59:47.057Z,100154.34
2023-02-13T03:03:07.824Z,100147.41
2023-02-13T03:06:18.185Z,100148.13
2023-02-13T03:09:44.802Z,100151.31
2023-02-13T03:13:09.915Z,100141.41
2023-02-13T03:16:39.217Z,100152.28
2023-02-13T03:20:14.465Z,100154.50
2023-02-13T03:23:26.799Z,100145.84
2023-02-13T03:26:50.365Z,100147.69
2023-02-13T03:30:11.335Z,100148.47
2023-02-13T03:33:36.160Z,100146.97
2023-02-13T03:37:05.149Z,100160.56
2023-02-13T03:40:13.993Z,100153.13
2023-02-13T03:43:19.816Z,100157.19
2023-02-13T03:46:26.749Z,100156.50
2023-02-13T03:49:52.142Z,100157.06
2023-02-13T03:52:59.178Z,100156.16
2023-02-13T03:56:22.101Z,100159.59
2023-02-13T03:59:30.655Z,100167.91
2023-02-13T04:02:39.044Z,100164.47
2023-02-13T04:05:45.979Z,100142.94
2023-02-13T04:08:49.377Z,100169.75
2023-02-13T04:12:00.364Z,100155.44
2023-02-13T04:15:09.883Z,100172.06
2023-02-13T04:18:18.679Z,100180.72
2023-02-13T04:21:21.997Z,100163.75
2023-02-13T04:24:25.383Z,100168.50
2023-02-13T04:27:30.021Z,100162.03
2023-02-13T04:34:21.627Z,100156.84
2023-02-13T04:37:25.415Z,100158.97
2023-02-13T04:40:28.732Z,100160.53
2023-02-13T04:43:31.984Z,100155.69
2023-02-13T04:46:35.050Z,100155.81
2023-02-13T04:49:39.538Z,100159.38
2023-02-13T04:52:42.738Z,100158.72
2023-02-13T04:55:45.935Z,100161.63
2023-02-13T04:58:49.418Z,100164.59
2023-02-13T05:01:52.995Z,100156.72
2023-02-13T05:04:57.485Z,100154.06
2023-02-13T05:08:00.805Z,100155.72
2023-02-13T05:11:04.042Z,100157.91
2023-02-13T05:14:07.266Z,100158.28
2023-02-13T05:17:10.611Z,100162.88
2023-02-13T05:20:15.717Z,100158.38
2023-02-13T05:23:23.774Z,100164.25
2023-02-13T05:26:27.004Z,100172.84
2023-02-13T05:29:30.361Z,100176.88
2023-02-13T05:32:33.479Z,100179.66
2023-02-13T05:35:37.980Z,100173.53
2023-02-13T05:38:42.143Z,100185.22
2023-02-13T05:41:46.652Z,100189.25
2023-02-13T05:44:49.830Z,100190.06
2023-02-13T05:47:53.056Z,100197.84
2023-02-13T05:50:58.019Z,100197.59
2023-02-13T05:54:01.500Z,100201.59
2023-02-13T05:57:04.711Z,100207.13
2023-02-13T06:00:09.067Z,100208.22
2023-02-13T06:03:14.807Z,100176.00
2023-02-13T06:06:19.698Z,100211.41
2023-02-13T06:09:22.899Z,100206.63
2023-02-13T06:12:26.199Z,100208.44
2023-02-13T06:15:29.425Z,100210.94
2023-02-13T06:18:32.565Z,100214.66
2023-02-13T06:21:38.011Z,100215.81
2023-02-13T06:24:41.176Z,100221.81
2023-02-13T06:27:44.547Z,100231.41
2023-02-13T06:30:48.968Z,100195.81
2023-02-13T06:33:52.597Z,100232.28
2023-02-13T06:36:57.058Z,100235.28
2023-02-13T06:40:00.895Z,100224.81
2023-02-13T06:43:04.239Z,100228.53
2023-02-13T06:46:08.152Z,100236.75
2023-02-13T06:49:11.357Z,100234.94
2023-02-13T06:52:16.019Z,100241.00
2023-02-13T06:55:20.710Z,100246.00
2023-02-13T06:58:25.698Z,100257.00
2023-02-13T07:01:28.882Z,100251.91
2023-02-13T07:04:32.278Z,100257.41
2023-02-13T07:07:37.824Z,100241.69
2023-02-13T07:10:42.545Z,100249.94
2023-02-13T07:13:45.799Z,100256.88
2023-02-13T07:16:49.339Z,100259.50
2023-02-13T07:19:52.510Z,100261.44
2023-02-13T07:23:00.804Z,100265.38
2023-02-13T07:26:04.425Z,100260.28
2023-02-13T07:29:12.109Z,100261.09
2023-02-13T07:32:15.844Z,100258.97
2023-02-13T07:35:18.822Z,100269.56
2023-02-13T07:38:23.677Z,100249.00
2023-02-13T07:41:27.169Z,100259.91
2023-02-13T07:44:31.262Z,100267.09
2023-02-13T07:47:34.894Z,100264.63
2023-02-13T07:50:38.200Z,100264.75
2023-02-13T07:53:42.780Z,100273.53
2023-02-13T07:56:45.952Z,100275.41
2023-02-13T07:59:49.101Z,100278.59
2023-02-13T08:02:52.292Z,100276.38
2023-02-13T08:05:55.699Z,100275.13
2023-02-13T08:09:17.798Z,100275.38
2023-02-13T08:12:21.106Z,100271.56
2023-02-13T08:15:24.837Z,100281.03
2023-02-13T08:18:28.186Z,100274.22
2023-02-13T08:21:31.754Z,100276.06
2023-02-13T08:24:36.260Z,100267.78
2023-02-13T08:27:40.217Z,100268.88
2023-02-13T08:30:43.976Z,100264.69
2023-02-13T08:33:47.202Z,100271.72
2023-02-13T08:36:50.271Z,100255.66
2023-02-13T08:39:54.745Z,100274.22
2023-02-13T08:43:01.244Z,100270.00
2023-02-13T08:46:04.389Z,100265.50
2023-02-13T08:49:07.741Z,100270.91
2023-02-13T08:52:10.918Z,100265.50
2023-02-13T08:55:15.663Z,100262.38
2023-02-13T08:58:18.787Z,100276.41
2023-02-13T09:01:24.011Z,100268.94
2023-02-13T09:04:28.045Z,100277.00
2023-02-13T09:07:31.225Z,100257.78
2023-02-13T09:10:36.085Z,100267.16
2023-02-13T09:13:39.327Z,100266.34
2023-02-13T09:16:42.515Z,100267.34
2023-02-13T09:19:48.396Z,100258.41
2023-02-13T09:22:51.728Z,100262.16
2023-02-13T09:25:56.495Z,100249.53
2023-02-13T09:28:59.814Z,100247.06
2023-02-13T09:32:03.222Z,100241.66
2023-02-13T09:35:07.441Z,100244.28
2023-02-13T09:38:10.727Z,100244.50
2023-02-13T09:41:19.306Z,100242.38
2023-02-13T09:44:39.192Z,100229.66
2023-02-13T09:47:43.599Z,100241.25
2023-02-13T09:50:46.837Z,100241.88
2023-02-13T09:53:55.531Z,100240.00
2023-02-13T09:57:02.880Z,100237.44
2023-02-13T10:00:14.543Z,100237.31
2023-02-13T10:03:27.317Z,100206.69
2023-02-13T10:06:35.741Z,100226.44
2023-02-13T10:09:43.814Z,100223.84
2023-02-13T10:12:53.652Z,100214.50
2023-02-13T10:16:06.808Z,100212.16
2023-02-13T10:19:17.845Z,100213.94
2023-02-13T10:22:24.828Z,100211.00
2023-02-13T10:25:31.228Z,100210.00
2023-02-13T10:28:39.836Z,100202.13
2023-02-13T10:34:28.337Z,100205.88
2023-02-13T10:37:31.634Z,100192.97
2023-02-13T10:40:39.928Z,100189.16
2023-02-13T10:43:57.459Z,100187.69
2023-02-13T10:47:09.551Z,100185.59
2023-02-13T10:50:24.413Z,100183.16
2023-02-13T10:53:36.637Z,100184.00
2023-02-13T10:56:46.041Z,100139.06
2023-02-13T11:00:03.438Z,100163.03
2023-02-13T11:03:07.482Z,100156.38
2023-02-13T11:06:17.177Z,100173.84
2023-02-13T11:09:21.388Z,100168.03
2023-02-13T11:12:26.613Z,100157.88
2023-02-13T11:15:32.152Z,100178.50
2023-02-13T11:18:38.759Z,100159.81
2023-02-13T11:21:43.267Z,100163.41
2023-02-13T11:24:54.849Z,100150.38
2023-02-13T11:45:01.565Z,100143.84
2023-02-13T11:48:23.059Z,100140.56
2023-02-13T11:51:44.984Z,100138.94
2023-02-13T11:54:57.648Z,100142.09
2023-02-13T11:58:25.830Z,100136.34
2023-02-13T12:01:30.030Z,100121.69
2023-02-13T12:04:34.595Z,100130.22
2023-02-13T12:07:37.842Z,100124.38
2023-02-13T12:10:43.567Z,100118.28
2023-02-13T12:13:47.702Z,100107.13
2023-02-13T12:16:55.445Z,100071.88
2023-02-13T12:20:01.385Z,100107.91
2023-02-13T12:23:15.586Z,100113.22
2023-02-13T12:26:27.761Z,100106.31
2023-02-13T12:29:54.239Z,100066.78
2023-02-13T12:33:10.226Z,100093.50
2023-02-13T12:36:20.265Z,100090.06
2023-02-13T12:39:28.692Z,100086.59
2023-02-13T12:42:43.203Z,100087.50
2023-02-13T12:45:54.245Z,100081.47
2023-02-13T12:49:06.694Z,100068.59
2023-02-13T12:52:27.581Z,100064.31
2023-02-13T12:55:44.732Z,100062.59
2023-02-13T12:59:01.369Z,100064.31
2023-02-13T13:02:31.172Z,100058.31
2023-02-13T13:06:08.805Z,100049.59
2023-02-13T13:09:35.225Z,100048.81
2023-02-13T13:12:50.253Z,100051.31
2023-02-13T13:16:03.813Z,100049.66
2023-02-13T13:19:19.965Z,100047.81
2023-02-13T13:22:29.269Z,100053.03
2023-02-13T13:25:38.341Z,100057.41
2023-02-13T13:28:44.395Z,100044.41
2023-02-13T13:31:51.895Z,99962.84
2023-02-13T13:34:56.257Z,100041.72
2023-02-13T13:38:06.582Z,100030.69
2023-02-13T13:41:16.320Z,100039.09
2023-02-13T13:45:03.698Z,100041.44
2023-02-13T13:48:23.304Z,100034.91
2023-02-13T13:51:26.810Z,100039.13
2023-02-13T13:54:39.108Z,100031.50
2023-02-13T13:58:01.611Z,100029.50
2023-02-13T14:01:31.059Z,100030.53
2023-02-13T14:04:43.466Z,100032.03
2023-02-13T14:07:48.590Z,100006.47
2023-02-13T14:11:03.711Z,100015.88
2023-02-13T14:14:53.511Z,100021.75
2023-02-13T14:17:58.658Z,100019.19
2023-02-13T14:21:04.060Z,100018.38
2023-02-13T14:24:13.179Z,100021.91
2023-02-13T14:27:23.030Z,100025.28
2023-02-13T14:30:30.045Z,100023.41
2023-02-13T14:33:34.974Z,100024.41
2023-02-13T14:36:40.874Z,100024.56
2023-02-13T14:40:04.682Z,100021.97
2023-02-13T14:43:31.602Z,100017.59
2023-02-13T14:46:40.781Z,100019.19
2023-02-13T14:49:45.926Z,100003.06
2023-02-13T14:52:50.605Z,100022.06
2023-02-13T14:56:00.033Z,100020.31
2023-02-13T14:59:12.780Z,100024.53
2023-02-13T15:02:24.036Z,100009.13
2023-02-13T15:05:33.751Z,100015.13
2023-02-13T15:08:42.317Z,100019.38
2023-02-13T15:11:45.607Z,100018.72
2023-02-13T15:14:48.969Z,100017.00
2023-02-13T15:17:55.434Z,100011.78
2023-02-13T15:21:01.334Z,100014.44
2023-02-13T15:24:04.938Z,100016.97
2023-02-13T15:27:08.645Z,100017.03
2023-02-13T15:30:21.806Z,99995.59
2023-02-13T15:33:26.714Z,100019.56
2023-02-13T15:36:40.745Z,100021.34
2023-02-13T15:39:44.173Z,100025.66
2023-02-13T15:42:47.468Z,100023.06
2023-02-13T15:45:50.694Z,100016.22
2023-02-13T15:48:55.156Z,100020.50
2023-02-13T15:52:09.150Z,100018.78
2023-02-13T15:55:20.093Z,100014.50
2023-02-13T15:58:29.366Z,99950.91
2023-02-13T16:01:33.897Z,100020.50
2023-02-13T16:04:37.420Z,100011.00
2023-02-13T16:07:51.554Z,100018.78
2023-02-13T16:11:11.113Z,100017.03
2023-02-13T16:14:18.867Z,100013.59
2023-02-13T16:17:30.622Z,100017.88
2023-02-13T16:20:36.662Z,100017.72
2023-02-13T16:23:41.279Z,100020.38
2023-02-13T16:26:45.094Z,100024.53
2023-02-13T16:29:55.556Z,100032.28
2023-02-13T16:34:38.721Z,100033.06
2023-02-13T16:37:51.944Z,100033.81
2023-02-13T16:40:56.743Z,100038.88
2023-02-13T16:44:01.081Z,100041.28
2023-02-13T16:47:06.172Z,100056.63
2023-02-13T16:50:17.113Z,100052.19
2023-02-13T16:53:21.421Z,100055.59
2023-02-13T16:56:24.572Z,100054.59
2023-02-13T16:59:31.376Z,100059.81
2023-02-13T17:02:35.660Z,100060.47
2023-02-13T17:05:40.136Z,100058.66
2023-02-13T17:08:43.486Z,100056.94
2023-02-13T17:11:51.366Z,100063.75
2023-02-13T17:14:54.646Z,100064.31
2023-02-13T17:17:58.226Z,100072.34
2023-02-13T17:21:02.806Z,100071.59
2023-02-13T17:24:07.153Z,100076.09
2023-02-13T17:27:14.792Z,100077.78
2023-02-13T17:30:21.081Z,100081.94
2023-02-13T17:33:26.519Z,100083.69
2023-02-13T17:36:31.151Z,100084.47
2023-02-13T17:39:34.261Z,100078.88
2023-02-13T17:42:37.910Z,100063.38
2023-02-13T17:45:41.956Z,100090.84
2023-02-13T17:48:45.105Z,100089.94
2023-02-13T17:51:49.691Z,100090.41
2023-02-13T17:54:52.839Z,100099.22
2023-02-13T17:57:57.847Z,100089.78
2023-02-13T18:01:01.524Z,100092.53
2023-02-13T18:04:05.067Z,100093.84
2023-02-13T18:07:10.478Z,100105.06
2023-02-13T18:10:17.248Z,100083.97
2023-02-13T18:13:26.402Z,100110.53
2023-02-13T18:16:29.682Z,100115.38
2023-02-13T18:19:32.862Z,100118.09
2023-02-13T18:22:37.693Z,100116.03
2023-02-13T18:25:41.501Z,100115.94
2023-02-13T18:28:44.765Z,100107.75
2023-02-13T18:31:47.999Z,100111.09
2023-02-13T18:34:51.592Z,100119.44
2023-02-13T18:37:56.086Z,100119.50
2023-02-13T18:40:59.516Z,100123.34
2023-02-13T18:44:02.814Z,100119.00
2023-02-13T18:47:06.055Z,100120.25
2023-02-13T18:50:10.626Z,100119.59
2023-02-13T18:53:15.297Z,100127.97
2023-02-13T18:56:20.135Z,100130.41
2023-02-13T18:59:23.540Z,100129.13
2023-02-13T19:02:26.790Z,100133.53
2023-02-13T19:05:29.992Z,100127.19
2023-02-13T19:08:35.854Z,100138.19
2023-02-13T19:11:39.502Z,100143.94
2023-02-13T19:14:44.218Z,100142.03
2023-02-13T19:17:47.381Z,100141.78
2023-02-13T19:20:50.470Z,100146.13
2023-02-13T19:23:55.078Z,100125.00
2023-02-13T19:26:58.476Z,100152.84
2023-02-13T19:30:01.832Z,100148.72
2023-02-13T19:33:05.156Z,100146.84
2023-02-13T19:36:11.811Z,100059.59
2023-02-13T19:39:16.602Z,100148.16
2023-02-13T19:42:20.005Z,100153.66
2023-02-13T19:45:23.161Z,100171.53
2023-02-13T19:48:26.296Z,100170.00
2023-02-13T19:51:31.538Z,100167.22
2023-02-13T19:54:36.179Z,100161.09
2023-02-13T19:57:39.558Z,100164.94
2023-02-13T20:00:42.749Z,100176.06
2023-02-13T20:03:45.944Z,100182.81
2023-02-13T20:06:50.819Z,100180.56
2023-02-13T20:09:55.351Z,100176.06
2023-02-13T20:12:58.497Z,100168.41
2023-02-13T20:16:05.371Z,100169.94
2023-02-13T20:19:11.829Z,100173.41
2023-02-13T20:22:16.551Z,100164.13
2023-02-13T20:25:22.075Z,100162.91
2023-02-13T20:28:28.196Z,100159.25
2023-02-13T20:31:33.564Z,100152.41
2023-02-13T20:34:58.347Z,100147.31
2023-02-13T20:38:00.125Z,100143.19
2023-02-13T20:41:09.832Z,100152.50
2023-02-13T20:44:14.271Z,100144.25
2023-02-13T20:47:17.630Z,100146.13
2023-02-13T20:50:20.963Z,100147.59
2023-02-13T20:53:24.192Z,100141.81
2023-02-13T20:56:29.293Z,100136.78
2023-02-13T20:59:32.520Z,100136.00
2023-02-13T21:02:35.927Z,100137.84
2023-02-13T21:05:39.183Z,100144.13
2023-02-13T21:08:44.299Z,100144.84
2023-02-13T21:11:48.715Z,100135.47
2023-02-13T21:14:52.104Z,100132.88
2023-02-13T21:17:55.260Z,100145.75
2023-02-13T21:20:58.601Z,100141.50
2023-02-13T21:24:08.238Z,100121.38
2023-02-13T21:27:13.739Z,100121.97
2023-02-13T21:30:17.129Z,100110.81
2023-02-13T21:33:20.278Z,100108.34
2023-02-13T21:36:23.360Z,100112.84
2023-02-13T21:39:29.380Z,100117.81
2023-02-13T21:42:33.930Z,100109.25
2023-02-13T21:45:37.265Z,100100.03
2023-02-13T21:48:41.747Z,100104.94
2023-02-13T21:51:45.422Z,100095.59
2023-02-13T21:54:48.990Z,100095.59
2023-02-13T21:57:53.478Z,100103.31
2023-02-13T22:00:57.077Z,100108.34
2023-02-13T22:04:02.643Z,100098.03
2023-02-13T22:07:05.816Z,100105.91
2023-02-13T22:10:12.601Z,100099.41
2023-02-13T22:13:17.076Z,100101.88
2023-02-13T22:16:20.266Z,100093.13
2023-02-13T22:19:23.934Z,100103.44
2023-02-13T22:22:27.908Z,100109.50
2023-02-13T22:25:31.042Z,100113.72
2023-02-13T22:28:35.777Z,100103.06
2023-02-13T22:34:38.366Z,100117.41
2023-02-13T22:37:42.090Z,100109.00
2023-02-13T22:40:45.621Z,100114.16
2023-02-13T22:43:48.839Z,100123.31
2023-02-13T22:46:51.889Z,100114.94
2023-02-13T22:49:56.479Z,100126.63
2023-02-13T22:53:00.198Z,100119.81
2023-02-13T22:56:05.282Z,100117.34
2023-02-13T22:59:08.450Z,100120.59
2023-02-13T23:02:12.434Z,100112.19
2023-02-13T23:05:17.613Z,100110.91
2023-02-13T23:08:21.308Z,100087.47
2023-02-13T23:11:44.034Z,100109.81
2023-02-13T23:14:47.143Z,100098.78
2023-02-13T23:18:07.748Z,100110.72
2023-02-13T23:21:12.356Z,100105.50
2023-02-13T23:24:15.804Z,100099.94
2023-02-13T23:27:18.931Z,100094.72
2023-02-13T23:30:22.237Z,100098.22
2023-02-13T23:33:25.448Z,100098.03
2023-02-13T23:36:29.964Z,100104.81
2023-02-13T23:39:33.203Z,100093.53
2023-02-13T23:42:36.442Z,100104.63
2023-02-13T23:45:39.657Z,100093.72
2023-02-13T23:48:42.849Z,100092.28
2023-02-13T23:51:47.822Z,100095.44
2023-02-13T23:54:51.054Z,100089.47
2023-02-13T23:57:54.269Z,100094.47
